createdAt,value
2023-07-05T00:02:33.882Z,2.05
2023-07-05T00:05:19.514Z,2.47
2023-07-05T00:08:05.919Z,2.38
2023-07-05T00:11:02.230Z,2.15
2023-07-05T00:13:47.617Z,2.20
2023-07-05T00:16:33.607Z,1.90
2023-07-05T00:19:19.230Z,1.90
2023-07-05T00:22:04.873Z,1.70
2023-07-05T00:24:54.280Z,2.22
2023-07-05T00:27:40.056Z,2.45
2023-07-05T00:30:25.671Z,3.33
2023-07-05T00:33:11.239Z,2.90
2023-07-05T00:35:56.811Z,3.00
2023-07-05T00:38:42.676Z,3.38
2023-07-05T00:41:28.452Z,4.30
2023-07-05T00:44:15.112Z,3.05
2023-07-05T00:47:06.671Z,3.50
2023-07-05T00:49:52.835Z,3.97
2023-07-05T00:52:38.578Z,3.83
2023-07-05T00:55:27.313Z,3.47
2023-07-05T00:58:13.458Z,3.55
2023-07-05T01:00:59.154Z,4.60
2023-07-05T01:03:51.883Z,3.30
2023-07-05T01:06:37.919Z,3.63
2023-07-05T01:09:27.132Z,4.10
2023-07-05T01:12:15.420Z,3.88
2023-07-05T01:15:04.743Z,4.05
2023-07-05T01:18:04.846Z,3.67
2023-07-05T01:20:56.597Z,3.95
2023-07-05T01:23:42.103Z,3.50
2023-07-05T01:26:56.750Z,3.38
2023-07-05T01:29:55.462Z,3.40
2023-07-05T01:32:48.322Z,3.70
2023-07-05T01:35:41.101Z,3.55
2023-07-05T01:38:26.483Z,3.63
2023-07-05T01:41:12.215Z,3.80
2023-07-05T01:43:57.868Z,3.27
2023-07-05T01:47:09.775Z,4.05
2023-07-05T01:50:22.472Z,3.63
2023-07-05T01:53:17.737Z,3.47
2023-07-05T01:56:08.185Z,3.75
2023-07-05T01:58:55.969Z,3.60
2023-07-05T02:01:43.649Z,3.15
2023-07-05T02:04:30.154Z,3.42
2023-07-05T02:07:15.587Z,3.10
2023-07-05T02:10:02.073Z,3.10
2023-07-05T02:12:48.182Z,3.40
2023-07-05T02:15:34.810Z,3.22
2023-07-05T02:18:20.771Z,3.55
2023-07-05T02:21:10.603Z,3.50
2023-07-05T02:23:56.018Z,4.75
2023-07-05T02:26:41.655Z,3.80
2023-07-05T02:29:27.551Z,3.87
2023-07-05T02:32:13.080Z,3.90
2023-07-05T02:35:02.229Z,3.90
2023-07-05T02:37:47.864Z,4.35
2023-07-05T02:40:34.035Z,4.10
2023-07-05T02:43:19.625Z,3.85
2023-07-05T02:46:06.864Z,3.33
2023-07-05T02:48:58.334Z,3.53
2023-07-05T02:51:44.403Z,3.85
2023-07-05T02:54:30.869Z,4.10
2023-07-05T02:57:16.659Z,3.40
2023-07-05T03:00:04.014Z,3.75
2023-07-05T03:02:49.600Z,3.88
2023-07-05T03:05:36.140Z,3.72
2023-07-05T03:08:21.989Z,3.53
2023-07-05T03:11:07.736Z,3.85
2023-07-05T03:13:53.532Z,3.63
2023-07-05T03:16:39.704Z,3.88
2023-07-05T03:19:26.252Z,3.65
2023-07-05T03:22:11.879Z,3.17
2023-07-05T03:24:57.258Z,4.18
2023-07-05T03:27:43.190Z,3.40
2023-07-05T03:30:28.805Z,3.63
2023-07-05T03:33:14.271Z,3.67
2023-07-05T03:36:05.916Z,3.65
2023-07-05T03:38:52.485Z,3.60
2023-07-05T03:41:38.124Z,3.70
2023-07-05T03:44:25.460Z,4.00
2023-07-05T03:47:11.294Z,3.85
2023-07-05T03:49:56.685Z,4.18
2023-07-05T03:52:42.385Z,4.03
2023-07-05T03:55:27.944Z,4.10
2023-07-05T03:58:13.347Z,3.90
2023-07-05T04:01:13.721Z,3.83
2023-07-05T04:04:01.775Z,3.72
2023-07-05T04:06:47.564Z,3.93
2023-07-05T04:09:33.299Z,3.33
2023-07-05T04:12:19.153Z,5.00
2023-07-05T04:15:05.206Z,4.00
2023-07-05T04:17:50.852Z,4.10
2023-07-05T04:20:39.820Z,4.07
2023-07-05T04:23:25.840Z,3.88
2023-07-05T04:26:22.912Z,4.47
2023-07-05T04:29:08.798Z,5.25
2023-07-05T04:31:54.464Z,4.57
2023-07-05T04:34:42.033Z,4.70
2023-07-05T04:37:33.564Z,4.75
2023-07-05T04:40:21.877Z,4.97
2023-07-05T04:43:07.639Z,5.45
2023-07-05T04:45:55.478Z,4.53
2023-07-05T04:48:41.076Z,5.18
2023-07-05T04:51:26.507Z,5.38
2023-07-05T04:54:11.870Z,5.40
2023-07-05T04:56:57.285Z,4.88
2023-07-05T04:59:44.342Z,5.30
2023-07-05T05:02:30.211Z,4.80
2023-07-05T05:05:15.949Z,5.20
2023-07-05T05:08:01.320Z,4.80
2023-07-05T05:10:51.681Z,5.03
2023-07-05T05:13:37.701Z,4.50
2023-07-05T05:16:23.178Z,5.15
2023-07-05T05:19:08.914Z,4.75
2023-07-05T05:21:54.518Z,6.03
2023-07-05T05:24:39.996Z,6.20
2023-07-05T05:27:25.662Z,6.15
2023-07-05T05:30:11.701Z,6.05
2023-07-05T05:32:57.665Z,6.20
2023-07-05T05:35:51.408Z,6.13
2023-07-05T05:38:37.482Z,5.80
2023-07-05T05:41:22.770Z,7.40
2023-07-05T05:44:08.563Z,7.07
2023-07-05T05:46:54.012Z,10.37
2023-07-05T05:49:39.706Z,7.03
2023-07-05T05:52:25.395Z,7.82
2023-07-05T05:55:10.933Z,7.35
2023-07-05T05:57:56.688Z,6.43
2023-07-05T06:00:42.132Z,7.28
2023-07-05T06:03:27.818Z,6.25
2023-07-05T06:06:13.839Z,7.15
2023-07-05T06:08:59.330Z,6.72
2023-07-05T06:11:45.030Z,6.57
2023-07-05T06:14:31.081Z,7.60
2023-07-05T06:17:17.074Z,6.95
2023-07-05T06:20:03.037Z,6.88
2023-07-05T06:22:48.779Z,6.20
2023-07-05T06:25:35.262Z,7.22
2023-07-05T06:28:20.770Z,7.00
2023-07-05T06:31:10.572Z,6.88
2023-07-05T06:33:56.026Z,7.65
2023-07-05T06:36:41.492Z,7.55
2023-07-05T06:39:27.210Z,13.37
2023-07-05T06:42:12.790Z,8.73
2023-07-05T06:44:58.636Z,9.70
2023-07-05T06:47:50.490Z,6.82
2023-07-05T06:50:36.169Z,8.80
2023-07-05T06:56:11.067Z,8.38
2023-07-05T06:58:56.504Z,8.18
2023-07-05T07:01:42.215Z,8.77
2023-07-05T07:04:27.622Z,8.35
2023-07-05T07:07:14.248Z,8.23
2023-07-05T07:10:02.591Z,8.40
2023-07-05T07:12:47.849Z,9.00
2023-07-05T07:15:33.522Z,8.35
2023-07-05T07:18:19.164Z,9.02
2023-07-05T07:21:10.167Z,8.43
2023-07-05T07:23:56.049Z,9.07
2023-07-05T07:26:43.436Z,8.53
2023-07-05T07:29:28.845Z,8.27
2023-07-05T07:32:14.551Z,8.30
2023-07-05T07:35:00.531Z,8.60
2023-07-05T07:37:46.912Z,7.57
2023-07-05T07:40:38.879Z,7.03
2023-07-05T07:43:24.626Z,7.45
2023-07-05T07:46:15.584Z,7.85
2023-07-05T07:49:02.960Z,6.95
2023-07-05T07:51:48.387Z,6.93
2023-07-05T07:54:34.439Z,7.38
2023-07-05T07:57:20.058Z,7.75
2023-07-05T08:00:11.468Z,6.80
2023-07-05T08:02:57.523Z,6.10
2023-07-05T08:05:42.958Z,6.20
2023-07-05T08:08:29.103Z,6.00
2023-07-05T08:11:14.346Z,6.38
2023-07-05T08:13:59.995Z,5.60
2023-07-05T08:16:47.023Z,5.90
2023-07-05T08:19:32.527Z,5.47
2023-07-05T08:22:19.436Z,5.97
2023-07-05T08:25:05.466Z,5.78
2023-07-05T08:27:50.863Z,6.05
2023-07-05T08:30:36.360Z,5.47
2023-07-05T08:33:24.045Z,5.70
2023-07-05T08:36:15.167Z,4.68
2023-07-05T08:39:04.451Z,4.75
2023-07-05T08:42:24.329Z,4.00
2023-07-05T08:45:27.317Z,4.00
2023-07-05T08:48:16.109Z,4.43
2023-07-05T08:51:14.159Z,3.25
2023-07-05T08:54:03.239Z,3.75
2023-07-05T08:56:52.259Z,3.97
2023-07-05T08:59:58.786Z,3.25
2023-07-05T09:02:44.467Z,3.00
2023-07-05T09:05:56.057Z,2.65
2023-07-05T09:08:53.512Z,3.15
2023-07-05T09:12:17.876Z,2.22
2023-07-05T09:15:12.947Z,2.80
2023-07-05T09:18:24.991Z,2.03
2023-07-05T09:21:22.646Z,2.05
2023-07-05T09:24:08.279Z,2.15
2023-07-05T09:27:00.221Z,1.93
2023-07-05T09:29:51.830Z,1.70
2023-07-05T09:32:42.902Z,1.80
2023-07-05T09:35:30.676Z,1.90
2023-07-05T09:38:37.242Z,1.70
2023-07-05T09:41:44.835Z,1.58
2023-07-05T09:44:31.332Z,1.80
2023-07-05T09:47:16.726Z,2.00
2023-07-05T09:50:02.533Z,1.33
2023-07-05T09:53:01.514Z,1.40
2023-07-05T09:56:10.282Z,1.60
2023-07-05T09:59:16.722Z,1.60
2023-07-05T10:02:13.857Z,1.67
2023-07-05T10:05:14.647Z,1.30
2023-07-05T10:08:02.936Z,1.50
2023-07-05T10:10:49.479Z,1.90
2023-07-05T10:13:35.494Z,1.38
2023-07-05T10:16:21.266Z,1.60
2023-07-05T10:19:21.799Z,1.75
2023-07-05T10:22:22.470Z,1.60
2023-07-05T10:25:20.581Z,1.63
2023-07-05T10:28:07.113Z,1.80
2023-07-05T10:30:54.483Z,1.50
2023-07-05T10:33:42.141Z,1.50
2023-07-05T10:36:27.871Z,1.80
2023-07-05T10:39:17.454Z,1.70
2023-07-05T10:42:03.389Z,1.85
2023-07-05T10:44:48.735Z,2.00
2023-07-05T10:47:34.906Z,1.80
2023-07-05T10:50:38.200Z,1.30
2023-07-05T10:53:27.372Z,1.88
2023-07-05T10:56:21.964Z,1.52
2023-07-05T10:59:35.001Z,1.50
2023-07-05T11:02:44.581Z,1.40
2023-07-05T11:05:39.051Z,1.50
2023-07-05T11:08:32.597Z,1.50
2023-07-05T11:11:22.051Z,1.13
2023-07-05T11:14:16.108Z,1.27
2023-07-05T11:17:02.668Z,1.10
2023-07-05T11:19:48.410Z,1.20
2023-07-05T11:22:37.362Z,1.27
2023-07-05T11:25:55.535Z,1.10
2023-07-05T11:28:42.773Z,1.10
2023-07-05T11:31:28.246Z,1.20
2023-07-05T11:34:22.839Z,1.20
2023-07-05T11:37:11.549Z,0.90
2023-07-05T11:39:56.879Z,1.10
2023-07-05T11:42:42.486Z,1.10
2023-07-05T11:45:27.956Z,1.05
2023-07-05T11:48:40.323Z,1.13
2023-07-05T11:51:38.157Z,1.10
2023-07-05T11:54:32.917Z,0.98
2023-07-05T11:57:18.938Z,1.10
2023-07-05T12:00:21.602Z,1.00
2023-07-05T12:03:29.379Z,0.88
2023-07-05T12:06:26.416Z,0.80
2023-07-05T12:09:17.763Z,0.80
2023-07-05T12:12:04.919Z,0.80
2023-07-05T12:14:51.417Z,1.10
2023-07-05T12:17:38.374Z,1.00
2023-07-05T12:20:43.015Z,0.90
2023-07-05T12:23:31.711Z,0.90
2023-07-05T12:26:26.143Z,1.00
2023-07-05T12:29:22.442Z,1.20
2023-07-05T12:32:16.400Z,0.90
2023-07-05T12:35:10.758Z,0.82
2023-07-05T12:37:57.910Z,0.80
2023-07-05T12:40:43.308Z,0.90
2023-07-05T12:43:30.092Z,0.70
2023-07-05T12:46:23.952Z,0.75
2023-07-05T12:49:19.708Z,1.02
2023-07-05T12:52:06.436Z,0.80
2023-07-05T12:54:52.129Z,0.80
2023-07-05T12:57:38.016Z,1.00
2023-07-05T13:00:23.974Z,0.90
2023-07-05T13:03:16.107Z,1.10
2023-07-05T13:06:03.472Z,0.80
2023-07-05T13:08:51.769Z,0.82
2023-07-05T13:11:37.863Z,0.82
2023-07-05T13:14:26.590Z,1.10
2023-07-05T13:17:12.510Z,0.80
2023-07-05T13:20:12.823Z,1.00
2023-07-05T13:22:59.649Z,0.98
2023-07-05T13:25:48.056Z,0.98
2023-07-05T13:28:35.297Z,0.80
2023-07-05T13:31:22.574Z,0.90
2023-07-05T13:34:08.525Z,1.00
2023-07-05T13:37:03.386Z,0.88
2023-07-05T13:39:49.738Z,0.88
2023-07-05T13:42:37.763Z,1.05
2023-07-05T13:45:28.708Z,0.90
2023-07-05T13:48:14.207Z,1.13
2023-07-05T13:50:59.856Z,1.10
2023-07-05T13:53:45.660Z,1.17
2023-07-05T13:56:31.240Z,1.00
2023-07-05T13:59:19.634Z,0.90
2023-07-05T14:02:29.702Z,1.17
2023-07-05T14:05:15.360Z,1.23
2023-07-05T14:08:04.667Z,1.08
2023-07-05T14:10:51.860Z,1.00
2023-07-05T14:13:37.396Z,0.95
2023-07-05T14:16:25.426Z,1.10
2023-07-05T14:19:11.113Z,0.93
2023-07-05T14:21:56.570Z,1.50
2023-07-05T14:24:42.844Z,0.93
2023-07-05T14:27:29.038Z,1.00
2023-07-05T14:30:15.010Z,1.00
2023-07-05T14:33:00.720Z,1.15
2023-07-05T14:35:46.167Z,1.40
2023-07-05T14:38:31.505Z,0.90
2023-07-05T14:41:28.578Z,1.10
2023-07-05T14:44:13.997Z,0.90
2023-07-05T14:47:00.294Z,0.87
2023-07-05T14:49:46.054Z,1.20
2023-07-05T14:52:31.898Z,1.30
2023-07-05T14:55:20.769Z,1.10
2023-07-05T14:58:12.732Z,1.27
2023-07-05T15:00:58.832Z,1.08
2023-07-05T15:03:47.876Z,1.20
2023-07-05T15:06:39.647Z,1.40
2023-07-05T15:09:26.107Z,0.88
2023-07-05T15:12:12.299Z,1.27
2023-07-05T15:14:57.958Z,1.40
2023-07-05T15:17:44.362Z,1.25
2023-07-05T15:20:29.889Z,1.15
2023-07-05T15:23:15.728Z,1.00
2023-07-05T15:26:03.941Z,1.15
2023-07-05T15:28:50.512Z,0.98
2023-07-05T15:31:37.684Z,1.20
2023-07-05T15:34:23.108Z,1.03
2023-07-05T15:37:08.933Z,1.10
2023-07-05T15:39:54.723Z,1.08
2023-07-05T15:42:40.905Z,1.15
2023-07-05T15:45:26.792Z,1.08
2023-07-05T15:48:12.608Z,1.10
2023-07-05T15:50:58.515Z,0.80
2023-07-05T15:53:44.196Z,1.10
2023-07-05T15:56:29.470Z,1.40
2023-07-05T15:59:23.787Z,1.38
2023-07-05T16:02:12.424Z,1.10
2023-07-05T16:04:58.345Z,1.20
2023-07-05T16:07:44.128Z,1.20
2023-07-05T16:10:30.797Z,1.20
2023-07-05T16:13:16.590Z,1.40
2023-07-05T16:16:02.051Z,1.20
2023-07-05T16:18:48.532Z,1.27
2023-07-05T16:21:34.306Z,1.20
2023-07-05T16:24:19.696Z,1.25
2023-07-05T16:27:06.216Z,1.20
2023-07-05T16:29:51.679Z,1.40
2023-07-05T16:32:37.664Z,1.10
2023-07-05T16:35:23.266Z,1.30
2023-07-05T16:38:08.922Z,1.38
2023-07-05T16:41:01.444Z,1.15
2023-07-05T16:43:47.133Z,1.30
2023-07-05T16:46:35.164Z,1.00
2023-07-05T16:49:21.155Z,1.13
2023-07-05T16:52:08.267Z,1.00
2023-07-05T16:54:54.239Z,1.13
2023-07-05T16:57:39.802Z,1.25
2023-07-05T17:00:25.278Z,1.45
2023-07-05T17:03:11.979Z,0.98
2023-07-05T17:05:59.393Z,0.93
2023-07-05T17:08:45.139Z,1.20
2023-07-05T17:11:30.860Z,1.10
2023-07-05T17:14:17.956Z,1.10
2023-07-05T17:17:03.810Z,1.15
2023-07-05T17:19:49.281Z,1.03
2023-07-05T17:22:36.191Z,1.00
2023-07-05T17:25:21.953Z,1.08
2023-07-05T17:28:09.486Z,0.90
2023-07-05T17:30:55.606Z,1.00
2023-07-05T17:33:42.119Z,0.90
2023-07-05T17:36:27.959Z,0.80
2023-07-05T17:39:13.760Z,0.97
2023-07-05T17:41:59.450Z,1.10
2023-07-05T17:44:45.318Z,1.00
2023-07-05T17:47:31.502Z,0.88
2023-07-05T17:50:18.223Z,0.80
2023-07-05T17:53:06.355Z,0.75
2023-07-05T17:55:53.693Z,1.10
2023-07-05T17:58:40.876Z,0.85
2023-07-05T18:01:28.877Z,1.13
2023-07-05T18:04:14.625Z,0.88
2023-07-05T18:07:00.349Z,0.80
2023-07-05T18:09:45.983Z,0.85
2023-07-05T18:12:31.814Z,0.90
2023-07-05T18:15:17.903Z,0.70
2023-07-05T18:18:06.015Z,0.70
2023-07-05T18:20:51.690Z,0.82
2023-07-05T18:23:40.598Z,0.80
2023-07-05T18:26:26.557Z,0.80
2023-07-05T18:29:26.460Z,0.80
2023-07-05T18:32:12.082Z,0.77
2023-07-05T18:34:57.724Z,0.90
2023-07-05T18:37:43.259Z,0.73
2023-07-05T18:40:28.644Z,0.60
2023-07-05T18:43:22.512Z,0.60
2023-07-05T18:46:10.153Z,0.80
2023-07-05T18:48:55.901Z,0.90
2023-07-05T18:51:41.528Z,0.90
2023-07-05T18:54:27.128Z,0.95
2023-07-05T18:57:12.450Z,0.77
2023-07-05T18:59:57.995Z,0.80
2023-07-05T19:02:43.835Z,0.73
2023-07-05T19:05:29.617Z,0.70
2023-07-05T19:08:16.710Z,1.05
2023-07-05T19:11:04.954Z,0.83
2023-07-05T19:13:50.921Z,0.77
2023-07-05T19:16:37.898Z,0.60
2023-07-05T19:19:23.825Z,0.65
2023-07-05T19:22:09.196Z,0.90
2023-07-05T19:24:54.847Z,0.70
2023-07-05T19:27:40.321Z,0.82
2023-07-05T19:30:26.168Z,0.88
2023-07-05T19:33:11.899Z,0.85
2023-07-05T19:35:57.938Z,1.00
2023-07-05T19:38:44.029Z,0.85
2023-07-05T19:41:29.482Z,0.93
2023-07-05T19:44:15.076Z,0.70
2023-07-05T19:47:01.111Z,0.63
2023-07-05T19:49:47.213Z,0.70
2023-07-05T19:52:33.047Z,0.88
2023-07-05T19:55:18.515Z,0.90
2023-07-05T19:58:05.716Z,0.82
2023-07-05T20:00:51.301Z,0.90
2023-07-05T20:03:37.138Z,0.80
2023-07-05T20:06:23.006Z,0.70
2023-07-05T20:09:09.596Z,0.90
2023-07-05T20:11:54.888Z,1.20
2023-07-05T20:14:41.463Z,0.85
2023-07-05T20:17:27.861Z,0.82
2023-07-05T20:20:14.047Z,0.95
2023-07-05T20:22:59.893Z,0.80
2023-07-05T20:25:47.264Z,0.77
2023-07-05T20:28:33.107Z,1.45
2023-07-05T20:31:19.606Z,0.98
2023-07-05T20:34:05.501Z,1.00
2023-07-05T20:36:51.210Z,0.82
2023-07-05T20:39:37.128Z,0.90
2023-07-05T20:42:22.489Z,0.98
2023-07-05T20:45:08.950Z,1.00
2023-07-05T20:47:54.947Z,0.90
2023-07-05T20:50:40.619Z,1.13
2023-07-05T20:53:26.446Z,1.10
2023-07-05T20:56:17.034Z,0.93
2023-07-05T20:59:02.524Z,0.93
2023-07-05T21:01:48.707Z,0.93
2023-07-05T21:04:37.280Z,1.17
2023-07-05T21:07:25.842Z,1.00
2023-07-05T21:10:11.856Z,1.02
2023-07-05T21:12:57.448Z,1.00
2023-07-05T21:15:43.322Z,1.00
2023-07-05T21:18:29.937Z,0.77
2023-07-05T21:21:16.949Z,0.90
2023-07-05T21:24:02.605Z,1.20
2023-07-05T21:26:48.204Z,0.90
2023-07-05T21:29:33.755Z,1.30
2023-07-05T21:32:19.583Z,0.90
2023-07-05T21:35:06.829Z,1.17
2023-07-05T21:37:57.125Z,1.10
2023-07-05T21:40:42.682Z,1.00
2023-07-05T21:43:28.347Z,1.10
2023-07-05T21:46:14.538Z,1.40
2023-07-05T21:49:00.323Z,1.48
2023-07-05T21:51:49.216Z,1.13
2023-07-05T21:54:34.889Z,1.27
2023-07-05T21:57:20.489Z,1.40
2023-07-05T22:00:08.263Z,1.30
2023-07-05T22:02:59.716Z,1.17
2023-07-05T22:05:45.264Z,1.30
2023-07-05T22:08:31.939Z,1.55
2023-07-05T22:11:17.448Z,1.30
2023-07-05T22:14:03.378Z,1.30
2023-07-05T22:16:49.341Z,1.20
2023-07-05T22:19:38.955Z,1.60
2023-07-05T22:22:24.574Z,1.40
2023-07-05T22:25:12.195Z,1.20
2023-07-05T22:27:57.932Z,1.52
2023-07-05T22:30:43.478Z,1.52
2023-07-05T22:33:29.388Z,1.20
2023-07-05T22:36:14.844Z,1.30
2023-07-05T22:39:00.801Z,1.30
2023-07-05T22:41:47.604Z,1.42
2023-07-05T22:44:42.708Z,1.45
2023-07-05T22:47:28.500Z,1.35
2023-07-05T22:50:14.514Z,1.35
2023-07-05T22:53:00.677Z,1.42
2023-07-05T22:55:46.114Z,1.55
2023-07-05T22:58:32.431Z,1.70
2023-07-05T23:01:19.393Z,1.83
2023-07-05T23:04:05.312Z,1.33
2023-07-05T23:06:50.840Z,1.40
2023-07-05T23:09:36.215Z,1.70
2023-07-05T23:12:21.853Z,1.50
2023-07-05T23:15:08.443Z,1.70
2023-07-05T23:17:54.215Z,1.52
2023-07-05T23:20:39.866Z,1.70
2023-07-05T23:23:27.832Z,1.60
2023-07-05T23:26:16.694Z,1.90
2023-07-05T23:29:02.690Z,1.95
2023-07-05T23:31:48.758Z,1.70
2023-07-05T23:34:34.173Z,1.65
2023-07-05T23:37:24.413Z,1.70
2023-07-05T23:40:13.240Z,1.80
2023-07-05T23:43:01.681Z,1.90
2023-07-05T23:45:48.381Z,1.70
2023-07-05T23:48:36.803Z,1.83
2023-07-05T23:51:22.222Z,2.00
2023-07-05T23:54:10.132Z,2.20
2023-07-05T23:57:05.009Z,1.83
2023-07-05T23:59:50.517Z,1.97
